Time;durP1;ratioP1;P1;durP2;ratioP2;P2;SDS_P1;SDS_P2;PMS_P1;PMS_P2;Temp;Humidity;BMP_temperature;BMP_pressure;BME280_temperature;BME280_humidity;BME280_pressure;Samples;Min_cycle;Max_cycle;Signal;HPM_P1;HPM_P2
2023/03/05 00:00:05;;;;;;;209.15;50.90;;;;;;;;;;5073805;28;20067;-75
2023/03/05 00:02:31;;;;;;;198.77;49.42;;;;;;;;;;5089907;28;20163;-75
2023/03/05 00:04:56;;;;;;;209.80;49.80;;;;;;;;;;5056390;28;20123;-76
2023/03/05 00:07:22;;;;;;;193.85;50.95;;;;;;;;;;5089979;28;20055;-75
2023/03/05 00:09:47;;;;;;;195.75;50.00;;;;;;;;;;5056395;28;20024;-75
2023/03/05 00:12:13;;;;;;;208.32;49.05;;;;;;;;;;5074286;28;20020;-76
2023/03/05 00:14:38;;;;;;;211.32;49.90;;;;;;;;;;5072449;28;20040;-75
2023/03/05 00:17:04;;;;;;;217.25;50.50;;;;;;;;;;5089394;28;20434;-75
2023/03/05 00:19:29;;;;;;;208.20;51.45;;;;;;;;;;5089964;28;20059;-75
2023/03/05 00:21:55;;;;;;;192.93;49.03;;;;;;;;;;5074339;28;20029;-75
2023/03/05 00:24:20;;;;;;;236.65;54.22;;;;;;;;;;5089929;28;20723;-75
2023/03/05 00:26:45;;;;;;;225.25;52.83;;;;;;;;;;5074222;28;20478;-75
2023/03/05 00:29:13;;;;;;;206.75;49.95;;;;;;;;;;5073771;28;20029;-76
2023/03/05 00:31:39;;;;;;;224.95;53.63;;;;;;;;;;5072484;28;20050;-75
2023/03/05 00:34:07;;;;;;;236.13;56.15;;;;;;;;;;5073450;28;20446;-75
2023/03/05 00:36:32;;;;;;;239.00;53.72;;;;;;;;;;5076235;28;20028;-75
2023/03/05 00:38:58;;;;;;;210.38;50.40;;;;;;;;;;5075956;28;20082;-75
2023/03/05 00:41:23;;;;;;;227.82;55.05;;;;;;;;;;5082757;28;20024;-75
2023/03/05 00:43:48;;;;;;;242.88;55.97;;;;;;;;;;5055449;28;20373;-74
2023/03/05 00:46:14;;;;;;;219.05;52.40;;;;;;;;;;5055437;28;20029;-75
2023/03/05 00:48:40;;;;;;;232.68;53.63;;;;;;;;;;5055755;28;20139;-75
2023/03/05 00:51:05;;;;;;;217.98;52.95;;;;;;;;;;5073333;28;20036;-76
2023/03/05 00:53:31;;;;;;;227.73;53.97;;;;;;;;;;5039275;28;20054;-75
2023/03/05 00:55:57;;;;;;;203.35;51.15;;;;;;;;;;5023062;28;20083;-75
2023/03/05 00:58:22;;;;;;;213.23;50.88;;;;;;;;;;5073657;28;20075;-75
2023/03/05 01:00:49;;;;;;;201.98;49.92;;;;;;;;;;5039364;28;20068;-75
2023/03/05 01:03:16;;;;;;;208.02;51.03;;;;;;;;;;5023017;28;20113;-75
2023/03/05 01:05:42;;;;;;;211.68;53.05;;;;;;;;;;5039106;28;20042;-75
2023/03/05 01:08:07;;;;;;;200.13;49.53;;;;;;;;;;5039207;28;20032;-74
2023/03/05 01:10:33;;;;;;;203.90;51.08;;;;;;;;;;5074039;28;20082;-74
2023/03/05 01:12:58;;;;;;;219.25;52.38;;;;;;;;;;5077549;28;20093;-75
2023/03/05 01:15:24;;;;;;;213.95;52.72;;;;;;;;;;5026492;28;20028;-75
2023/03/05 01:17:49;;;;;;;212.35;49.67;;;;;;;;;;5043194;28;20028;-74
2023/03/05 01:20:15;;;;;;;196.55;45.97;;;;;;;;;;5076720;28;20426;-75
2023/03/05 01:22:41;;;;;;;202.52;47.72;;;;;;;;;;5059736;28;20025;-75
2023/03/05 01:25:07;;;;;;;189.32;48.80;;;;;;;;;;5066219;28;20036;-75
2023/03/05 01:27:32;;;;;;;195.93;46.55;;;;;;;;;;5051895;28;20025;-74
2023/03/05 01:29:58;;;;;;;195.60;47.80;;;;;;;;;;5059417;28;20398;-74
2023/03/05 01:32:23;;;;;;;187.00;44.75;;;;;;;;;;5059506;28;20584;-75
2023/03/05 01:34:49;;;;;;;160.65;42.22;;;;;;;;;;5059337;28;20072;-75
2023/03/05 01:37:14;;;;;;;170.57;44.50;;;;;;;;;;5059742;28;20024;-75
2023/03/05 01:39:40;;;;;;;205.23;46.45;;;;;;;;;;5059707;28;20392;-75
2023/03/05 01:42:05;;;;;;;179.48;44.30;;;;;;;;;;5043296;28;20021;-74
2023/03/05 01:44:31;;;;;;;181.25;44.45;;;;;;;;;;5079662;28;20506;-75
2023/03/05 01:46:56;;;;;;;194.50;45.97;;;;;;;;;;5078935;28;20520;-76
2023/03/05 01:49:33;;;;;;;180.45;45.25;;;;;;;;;;5045791;28;20032;-75
2023/03/05 01:52:06;;;;;;;174.35;44.13;;;;;;;;;;5079408;28;20024;-75
2023/03/05 01:54:38;;;;;;;168.02;43.92;;;;;;;;;;5096137;28;20515;-75
2023/03/05 01:57:07;;;;;;;168.40;44.10;;;;;;;;;;5079277;28;20028;-75
2023/03/05 01:59:33;;;;;;;183.15;46.65;;;;;;;;;;5062697;28;20081;-75
2023/03/05 02:01:58;;;;;;;176.43;44.20;;;;;;;;;;5062289;28;20083;-74
2023/03/05 02:04:36;;;;;;;185.80;44.97;;;;;;;;;;5062179;28;20051;-74
2023/03/05 02:07:01;;;;;;;167.38;44.47;;;;;;;;;;5063403;28;20426;-74
2023/03/05 02:09:27;;;;;;;171.73;45.13;;;;;;;;;;5062021;28;20078;-75
2023/03/05 02:11:53;;;;;;;186.93;44.47;;;;;;;;;;5095566;28;20024;-76
2023/03/05 02:14:19;;;;;;;174.48;43.58;;;;;;;;;;5061786;28;20028;-75
2023/03/05 02:16:44;;;;;;;175.88;43.63;;;;;;;;;;5062649;28;20020;-75
2023/03/05 02:19:10;;;;;;;169.60;41.08;;;;;;;;;;5078605;28;20511;-75
2023/03/05 02:21:44;;;;;;;183.38;46.20;;;;;;;;;;5062051;28;20017;-76
2023/03/05 02:24:32;;;;;;;169.00;42.83;;;;;;;;;;5061985;28;20027;-75
2023/03/05 02:26:58;;;;;;;173.38;42.17;;;;;;;;;;5096593;28;20028;-75
2023/03/05 02:29:23;;;;;;;159.43;41.80;;;;;;;;;;5078182;28;20126;-75
2023/03/05 02:31:48;;;;;;;177.27;45.58;;;;;;;;;;5045292;28;20043;-75
2023/03/05 02:34:14;;;;;;;178.63;43.13;;;;;;;;;;5096289;28;20500;-75
2023/03/05 02:36:39;;;;;;;170.82;43.95;;;;;;;;;;5096317;28;20469;-75
2023/03/05 02:39:05;;;;;;;173.63;44.80;;;;;;;;;;5061847;28;20024;-75
2023/03/05 02:41:30;;;;;;;175.18;43.63;;;;;;;;;;5078332;28;20132;-75
2023/03/05 02:43:56;;;;;;;184.48;45.55;;;;;;;;;;5095930;28;20465;-75
2023/03/05 02:46:21;;;;;;;157.90;41.33;;;;;;;;;;5044998;28;20016;-75
2023/03/05 02:48:47;;;;;;;171.15;43.45;;;;;;;;;;5077978;28;20126;-74
2023/03/05 02:51:12;;;;;;;178.05;44.83;;;;;;;;;;5078227;28;20440;-76
2023/03/05 02:53:37;;;;;;;162.13;42.95;;;;;;;;;;5094759;28;20511;-75
2023/03/05 02:56:03;;;;;;;168.20;43.40;;;;;;;;;;5095983;28;20089;-75
2023/03/05 02:58:29;;;;;;;176.93;42.83;;;;;;;;;;5077788;28;20038;-74
2023/03/05 03:00:54;;;;;;;157.43;40.97;;;;;;;;;;5077983;28;20342;-75
2023/03/05 03:03:19;;;;;;;150.63;42.63;;;;;;;;;;5077706;28;20523;-75
2023/03/05 03:05:45;;;;;;;170.65;41.75;;;;;;;;;;5077983;28;20016;-75
2023/03/05 03:08:10;;;;;;;153.02;41.88;;;;;;;;;;5078002;28;20028;-74
2023/03/05 03:10:36;;;;;;;145.43;40.58;;;;;;;;;;5096379;28;20028;-75
2023/03/05 03:13:01;;;;;;;167.38;43.10;;;;;;;;;;5077402;28;20024;-76
2023/03/05 03:15:27;;;;;;;165.93;44.03;;;;;;;;;;5060676;28;20024;-75
2023/03/05 03:17:53;;;;;;;154.43;41.08;;;;;;;;;;5077537;28;20024;-75
2023/03/05 03:20:19;;;;;;;159.60;43.65;;;;;;;;;;5094443;28;20461;-75
2023/03/05 03:22:44;;;;;;;172.57;44.13;;;;;;;;;;5077460;28;20130;-75
2023/03/05 03:25:14;;;;;;;158.43;44.03;;;;;;;;;;5077436;28;20032;-75
2023/03/05 03:27:40;;;;;;;150.75;42.38;;;;;;;;;;5077858;28;20028;-75
2023/03/05 03:30:06;;;;;;;152.95;42.03;;;;;;;;;;5077625;28;20036;-76
2023/03/05 03:32:31;;;;;;;165.07;41.83;;;;;;;;;;5095288;28;20107;-75
2023/03/05 03:34:57;;;;;;;145.38;41.03;;;;;;;;;;5076079;28;20127;-75
2023/03/05 03:37:22;;;;;;;145.55;41.13;;;;;;;;;;5077426;28;20036;-75
2023/03/05 03:39:48;;;;;;;139.25;40.80;;;;;;;;;;5077174;28;20032;-75
2023/03/05 03:42:16;;;;;;;139.82;39.78;;;;;;;;;;5076813;28;20406;-75
2023/03/05 03:44:42;;;;;;;128.85;38.15;;;;;;;;;;5077538;28;20110;-76
2023/03/05 03:47:07;;;;;;;140.15;39.08;;;;;;;;;;5084922;28;20107;-75
2023/03/05 03:49:33;;;;;;;145.93;40.53;;;;;;;;;;5056413;28;20085;-74
2023/03/05 03:51:58;;;;;;;136.13;40.92;;;;;;;;;;5057029;28;20131;-75
2023/03/05 03:54:23;;;;;;;129.55;38.80;;;;;;;;;;5074198;28;20107;-75
2023/03/05 03:57:28;;;;;;;141.60;40.60;;;;;;;;;;5091295;27;20393;-75
2023/03/05 03:59:54;;;;;;;141.18;38.20;;;;;;;;;;5090226;28;20365;-75
2023/03/05 04:02:19;;;;;;;146.75;41.35;;;;;;;;;;5124083;28;20036;-75
2023/03/05 04:04:45;;;;;;;137.93;38.70;;;;;;;;;;5091235;28;20024;-75
2023/03/05 04:07:10;;;;;;;133.40;37.15;;;;;;;;;;5124460;28;20131;-75
2023/03/05 04:09:36;;;;;;;120.28;36.33;;;;;;;;;;5073086;28;20026;-74
2023/03/05 04:12:01;;;;;;;132.38;38.33;;;;;;;;;;5089958;28;20077;-74
2023/03/05 04:14:27;;;;;;;130.48;38.30;;;;;;;;;;5089773;28;20059;-74
2023/03/05 04:16:52;;;;;;;133.02;38.90;;;;;;;;;;5091254;28;20031;-74
2023/03/05 04:19:17;;;;;;;125.65;36.45;;;;;;;;;;5072973;28;20055;-74
2023/03/05 04:21:43;;;;;;;128.05;41.15;;;;;;;;;;5091035;28;20413;-75
2023/03/05 04:24:08;;;;;;;136.70;38.05;;;;;;;;;;5089485;28;20079;-74
2023/03/05 04:26:34;;;;;;;134.05;36.72;;;;;;;;;;5089998;28;20166;-74
2023/03/05 04:28:59;;;;;;;125.68;36.72;;;;;;;;;;5089865;28;20383;-75
2023/03/05 04:31:25;;;;;;;115.60;35.22;;;;;;;;;;5103663;28;20153;-74
2023/03/05 04:33:50;;;;;;;117.90;36.55;;;;;;;;;;5089890;28;20117;-75
2023/03/05 04:36:16;;;;;;;113.22;35.10;;;;;;;;;;5090616;28;20501;-75
2023/03/05 04:38:41;;;;;;;128.48;38.22;;;;;;;;;;5089241;28;20024;-75
2023/03/05 04:41:06;;;;;;;121.75;37.92;;;;;;;;;;5089422;28;20024;-74
2023/03/05 04:43:32;;;;;;;122.18;38.25;;;;;;;;;;5090632;28;20114;-75
2023/03/05 04:45:57;;;;;;;123.45;38.20;;;;;;;;;;5090665;28;20024;-75
2023/03/05 04:48:23;;;;;;;116.35;37.65;;;;;;;;;;5068474;28;20020;-74
2023/03/05 04:50:48;;;;;;;115.63;37.50;;;;;;;;;;5089361;28;20044;-74
2023/03/05 04:53:13;;;;;;;132.30;37.20;;;;;;;;;;5090319;28;20020;-75
2023/03/05 04:55:39;;;;;;;120.90;39.00;;;;;;;;;;5088881;28;20090;-75
2023/03/05 04:58:04;;;;;;;115.72;37.80;;;;;;;;;;5090431;28;20020;-74
2023/03/05 05:00:30;;;;;;;124.38;39.42;;;;;;;;;;5071834;28;20036;-75
2023/03/05 05:02:55;;;;;;;129.38;38.97;;;;;;;;;;5088962;28;20103;-74
2023/03/05 05:05:23;;;;;;;119.32;39.25;;;;;;;;;;5089078;28;20077;-75
2023/03/05 05:07:49;;;;;;;130.77;40.88;;;;;;;;;;5081023;28;20074;-74
2023/03/05 05:10:14;;;;;;;131.45;38.65;;;;;;;;;;5076866;28;20037;-74
2023/03/05 05:12:40;;;;;;;124.47;39.97;;;;;;;;;;5076644;28;20445;-74
2023/03/05 05:15:06;;;;;;;121.88;39.20;;;;;;;;;;5075332;28;20418;-74
2023/03/05 05:17:32;;;;;;;123.28;39.45;;;;;;;;;;5092014;28;20033;-74
2023/03/05 05:19:59;;;;;;;121.60;38.97;;;;;;;;;;5075159;28;20099;-75
2023/03/05 05:22:24;;;;;;;116.15;37.08;;;;;;;;;;5075018;28;20036;-74
2023/03/05 05:24:49;;;;;;;114.63;36.08;;;;;;;;;;5075261;28;20033;-76
2023/03/05 05:27:15;;;;;;;116.18;37.85;;;;;;;;;;5075754;28;20064;-77
2023/03/05 05:29:40;;;;;;;118.70;37.75;;;;;;;;;;5058631;28;20442;-73
2023/03/05 05:32:06;;;;;;;122.75;38.03;;;;;;;;;;5076511;28;20028;-76
2023/03/05 05:34:31;;;;;;;127.90;38.22;;;;;;;;;;5075072;28;20464;-75
2023/03/05 05:36:57;;;;;;;124.53;37.97;;;;;;;;;;5074865;28;20082;-74
2023/03/05 05:39:22;;;;;;;117.32;37.85;;;;;;;;;;5074858;28;20021;-75
2023/03/05 05:41:51;;;;;;;119.30;39.08;;;;;;;;;;5076391;28;20032;-75
2023/03/05 05:44:17;;;;;;;115.82;38.28;;;;;;;;;;5058316;28;20118;-74
2023/03/05 05:46:42;;;;;;;127.03;38.40;;;;;;;;;;5074709;28;20076;-75
2023/03/05 05:49:07;;;;;;;120.55;37.80;;;;;;;;;;5074656;28;20035;-74
2023/03/05 05:51:33;;;;;;;106.82;37.50;;;;;;;;;;5053662;28;20067;-75
2023/03/05 05:53:58;;;;;;;115.38;37.67;;;;;;;;;;5075426;28;20028;-75
2023/03/05 05:56:24;;;;;;;117.32;37.45;;;;;;;;;;5057602;28;20106;-75
2023/03/05 05:58:49;;;;;;;118.25;39.90;;;;;;;;;;5075028;28;20021;-75
2023/03/05 06:01:21;;;;;;;120.25;40.88;;;;;;;;;;5040893;28;20024;-75
2023/03/05 06:03:47;;;;;;;113.55;40.88;;;;;;;;;;5057868;28;20520;-75
2023/03/05 06:06:14;;;;;;;109.70;40.28;;;;;;;;;;5074055;28;20024;-75
2023/03/05 06:08:39;;;;;;;112.38;37.65;;;;;;;;;;5057941;28;20043;-76
2023/03/05 06:11:05;;;;;;;114.60;40.20;;;;;;;;;;5074296;28;20126;-75
2023/03/05 06:13:31;;;;;;;123.03;37.83;;;;;;;;;;5074085;28;20052;-75
2023/03/05 06:16:03;;;;;;;145.20;57.65;;;;;;;;;;5075101;28;20039;-75
2023/03/05 06:18:29;;;;;;;122.97;45.05;;;;;;;;;;5057817;28;20128;-75
2023/03/05 06:21:02;;;;;;;103.00;36.53;;;;;;;;;;5056700;28;20060;-75
2023/03/05 06:23:27;;;;;;;101.57;35.42;;;;;;;;;;5057757;28;20040;-75
2023/03/05 06:25:53;;;;;;;146.75;59.00;;;;;;;;;;5073739;28;20032;-75
2023/03/05 06:28:19;;;;;;;163.98;70.93;;;;;;;;;;5040644;28;20041;-75
2023/03/05 06:30:44;;;;;;;115.95;44.53;;;;;;;;;;5074106;28;20028;-75
2023/03/05 06:33:10;;;;;;;100.93;36.95;;;;;;;;;;5075349;28;20032;-77
2023/03/05 06:35:38;;;;;;;102.18;33.40;;;;;;;;;;5073435;28;20067;-75
2023/03/05 06:38:05;;;;;;;98.90;36.33;;;;;;;;;;5057597;28;20024;-75
2023/03/05 06:40:31;;;;;;;100.13;34.70;;;;;;;;;;5074795;28;20132;-76
2023/03/05 06:42:56;;;;;;;94.25;31.33;;;;;;;;;;5073694;28;20556;-74
2023/03/05 06:45:22;;;;;;;88.43;32.17;;;;;;;;;;5073531;28;20466;-75
2023/03/05 06:47:47;;;;;;;81.43;29.75;;;;;;;;;;5073449;28;20374;-75
2023/03/05 06:50:12;;;;;;;90.53;32.67;;;;;;;;;;5073308;28;20368;-74
2023/03/05 06:52:39;;;;;;;83.22;31.52;;;;;;;;;;5070009;28;20623;-75
2023/03/05 06:55:06;;;;;;;84.68;30.70;;;;;;;;;;5072863;28;20028;-75
2023/03/05 06:57:31;;;;;;;82.57;30.30;;;;;;;;;;5039924;28;20040;-74
2023/03/05 06:59:57;;;;;;;83.93;30.67;;;;;;;;;;5056569;28;20028;-76
2023/03/05 07:02:22;;;;;;;84.13;31.13;;;;;;;;;;5073187;28;20048;-75
2023/03/05 07:04:48;;;;;;;90.78;33.85;;;;;;;;;;5073123;28;20032;-75
2023/03/05 07:07:13;;;;;;;86.90;37.15;;;;;;;;;;5074257;28;20051;-75
2023/03/05 07:09:41;;;;;;;82.43;34.33;;;;;;;;;;5073053;28;20028;-75
2023/03/05 07:12:10;;;;;;;70.78;29.83;;;;;;;;;;5073015;28;20028;-75
2023/03/05 07:14:36;;;;;;;66.78;27.48;;;;;;;;;;5073392;28;20029;-75
2023/03/05 07:17:01;;;;;;;63.25;26.23;;;;;;;;;;5074083;28;20036;-74
2023/03/05 07:19:27;;;;;;;65.90;26.17;;;;;;;;;;5072638;28;20036;-75
2023/03/05 07:21:52;;;;;;;64.35;26.27;;;;;;;;;;5074216;28;20032;-75
2023/03/05 07:24:17;;;;;;;61.38;26.20;;;;;;;;;;5072881;28;20028;-75
2023/03/05 07:26:43;;;;;;;62.83;26.02;;;;;;;;;;5074449;28;20044;-75
2023/03/05 07:29:08;;;;;;;66.43;27.02;;;;;;;;;;5072876;28;20159;-75
2023/03/05 07:31:34;;;;;;;54.38;26.23;;;;;;;;;;5074690;28;20032;-75
2023/03/05 07:34:00;;;;;;;54.55;25.70;;;;;;;;;;5056787;28;20447;-75
2023/03/05 07:36:26;;;;;;;50.17;23.77;;;;;;;;;;5083329;28;20043;-75
2023/03/05 07:38:51;;;;;;;54.40;25.00;;;;;;;;;;5042233;28;20036;-74
2023/03/05 07:41:18;;;;;;;50.35;24.42;;;;;;;;;;5074036;28;20031;-74
2023/03/05 07:43:44;;;;;;;56.13;25.17;;;;;;;;;;5056428;28;20434;-74
2023/03/05 07:46:10;;;;;;;64.28;28.63;;;;;;;;;;5056022;28;20029;-74
2023/03/05 07:48:36;;;;;;;58.28;26.63;;;;;;;;;;5055756;28;20035;-75
2023/03/05 07:51:02;;;;;;;56.50;29.02;;;;;;;;;;5072742;28;20346;-75
2023/03/05 07:53:28;;;;;;;49.05;24.65;;;;;;;;;;5073945;28;20149;-74
2023/03/05 07:55:53;;;;;;;50.22;23.83;;;;;;;;;;5052028;28;20487;-75
2023/03/05 07:58:19;;;;;;;57.13;25.40;;;;;;;;;;5072177;28;20031;-75
2023/03/05 08:00:44;;;;;;;50.30;25.80;;;;;;;;;;5072618;28;20032;-75
2023/03/05 08:03:09;;;;;;;49.75;25.27;;;;;;;;;;5072229;28;20028;-75
2023/03/05 08:05:38;;;;;;;54.47;24.33;;;;;;;;;;5072455;28;20085;-75
2023/03/05 08:08:04;;;;;;;57.85;25.27;;;;;;;;;;5055969;28;20027;-74
2023/03/05 08:10:29;;;;;;;52.85;25.50;;;;;;;;;;5072659;28;20025;-75
2023/03/05 08:12:55;;;;;;;52.80;24.55;;;;;;;;;;5072502;28;20077;-74
2023/03/05 08:15:20;;;;;;;55.25;26.38;;;;;;;;;;5072249;28;20029;-77
2023/03/05 08:17:46;;;;;;;60.60;25.92;;;;;;;;;;5073574;28;20032;-77
2023/03/05 08:20:12;;;;;;;57.67;25.80;;;;;;;;;;5073700;28;20036;-76
2023/03/05 08:22:37;;;;;;;53.72;25.77;;;;;;;;;;5073487;28;20040;-76
2023/03/05 08:25:03;;;;;;;53.72;25.25;;;;;;;;;;5073825;28;20040;-76
2023/03/05 08:27:28;;;;;;;56.58;25.15;;;;;;;;;;5073447;28;20066;-76
2023/03/05 08:29:54;;;;;;;62.65;29.13;;;;;;;;;;5072166;28;20048;-76
2023/03/05 08:32:20;;;;;;;53.83;25.55;;;;;;;;;;5073729;28;20033;-76
2023/03/05 08:34:45;;;;;;;69.13;36.25;;;;;;;;;;5072262;28;20481;-75
2023/03/05 08:37:10;;;;;;;46.88;24.63;;;;;;;;;;5038970;28;20037;-76
2023/03/05 08:39:36;;;;;;;42.28;19.77;;;;;;;;;;5072467;28;20131;-76
2023/03/05 08:42:02;;;;;;;39.47;18.13;;;;;;;;;;5072182;28;20032;-75
2023/03/05 08:44:28;;;;;;;44.00;19.00;;;;;;;;;;5076832;28;20036;-75
2023/03/05 08:46:53;;;;;;;45.28;19.40;;;;;;;;;;5077042;28;20028;-75
2023/03/05 08:49:18;;;;;;;45.03;21.13;;;;;;;;;;5077210;28;20028;-75
2023/03/05 08:51:44;;;;;;;46.65;20.73;;;;;;;;;;5076895;28;20028;-75
2023/03/05 08:54:10;;;;;;;46.42;21.58;;;;;;;;;;5076823;28;20568;-75
2023/03/05 08:56:35;;;;;;;45.20;20.63;;;;;;;;;;5074001;28;20045;-75
2023/03/05 08:59:02;;;;;;;40.83;19.67;;;;;;;;;;5058407;28;20028;-76
2023/03/05 09:01:27;;;;;;;42.92;19.73;;;;;;;;;;5075553;28;20028;-75
2023/03/05 09:03:53;;;;;;;40.47;19.20;;;;;;;;;;5075576;28;20033;-76
2023/03/05 09:06:18;;;;;;;46.70;20.92;;;;;;;;;;5076769;28;20370;-74
2023/03/05 09:08:44;;;;;;;52.55;22.70;;;;;;;;;;5076733;28;20028;-75
2023/03/05 09:11:11;;;;;;;50.58;21.00;;;;;;;;;;5059027;28;20040;-75
2023/03/05 09:13:36;;;;;;;45.67;21.63;;;;;;;;;;5058450;28;20123;-75
2023/03/05 09:16:03;;;;;;;49.40;23.13;;;;;;;;;;5076687;28;20127;-74
2023/03/05 09:18:29;;;;;;;49.78;23.90;;;;;;;;;;5059312;28;20035;-75
2023/03/05 09:20:55;;;;;;;62.60;31.10;;;;;;;;;;5058757;28;20037;-74
2023/03/05 09:23:21;;;;;;;51.60;23.58;;;;;;;;;;5076383;28;20029;-74
2023/03/05 09:25:46;;;;;;;53.22;25.55;;;;;;;;;;5076519;28;20028;-73
2023/03/05 09:28:11;;;;;;;52.63;22.90;;;;;;;;;;5074726;28;20055;-74
2023/03/05 09:30:37;;;;;;;66.00;23.40;;;;;;;;;;5076321;28;20024;-74
2023/03/05 09:33:03;;;;;;;57.03;23.77;;;;;;;;;;5075030;28;20075;-74
2023/03/05 09:35:29;;;;;;;58.67;24.60;;;;;;;;;;5058510;28;20139;-74
2023/03/05 09:37:54;;;;;;;52.55;22.90;;;;;;;;;;5076048;28;20031;-74
2023/03/05 09:40:19;;;;;;;51.70;22.05;;;;;;;;;;5076054;28;20024;-74
2023/03/05 09:42:48;;;;;;;54.45;22.27;;;;;;;;;;5074806;28;20082;-73
2023/03/05 09:45:22;;;;;;;56.47;23.02;;;;;;;;;;5076051;28;20067;-74
2023/03/05 09:47:56;;;;;;;56.70;23.02;;;;;;;;;;5075847;28;20035;-74
2023/03/05 09:50:40;;;;;;;57.60;23.08;;;;;;;;;;5074704;28;20043;-74
2023/03/05 09:53:27;;;;;;;56.28;22.60;;;;;;;;;;5075524;28;20067;-74
2023/03/05 09:55:54;;;;;;;62.88;24.20;;;;;;;;;;5075616;28;20451;-75
2023/03/05 09:58:31;;;;;;;57.97;24.88;;;;;;;;;;5054733;28;20094;-75
2023/03/05 10:01:00;;;;;;;55.78;23.52;;;;;;;;;;5066877;28;20442;-75
2023/03/05 10:03:29;;;;;;;71.25;29.00;;;;;;;;;;5058066;28;20374;-75
2023/03/05 10:05:58;;;;;;;57.70;23.80;;;;;;;;;;5074731;28;20036;-75
2023/03/05 10:08:27;;;;;;;72.88;30.65;;;;;;;;;;5074837;28;20028;-75
2023/03/05 10:10:52;;;;;;;65.38;23.83;;;;;;;;;;5058185;28;20493;-75
2023/03/05 10:13:21;;;;;;;54.60;21.80;;;;;;;;;;5074481;28;20120;-75
2023/03/05 10:15:59;;;;;;;59.63;25.33;;;;;;;;;;5075723;28;20033;-75
2023/03/05 10:18:27;;;;;;;59.13;25.75;;;;;;;;;;5075812;28;20033;-75
2023/03/05 10:21:02;;;;;;;59.58;21.90;;;;;;;;;;5075107;28;20032;-74
2023/03/05 10:23:32;;;;;;;61.08;23.70;;;;;;;;;;5074909;28;20036;-75
2023/03/05 10:26:05;;;;;;;;;;;;;;;;;;5057844;28;20029;-75
2023/03/05 10:28:49;;;;;;;67.40;24.38;;;;;;;;;;5058064;28;20317;-75
2023/03/05 10:31:34;;;;;;;60.53;23.08;;;;;;;;;;5074906;28;20035;-75
2023/03/05 10:34:35;;;;;;;67.00;23.00;;;;;;;;;;5077336;28;20039;-76
2023/03/05 10:37:19;;;;;;;60.95;22.40;;;;;;;;;;5074563;28;20085;-76
2023/03/05 10:39:59;;;;;;;58.35;24.05;;;;;;;;;;5077814;28;20169;-75
2023/03/05 10:42:51;;;;;;;53.42;22.88;;;;;;;;;;5081006;28;20020;-75
2023/03/05 10:45:34;;;;;;;56.40;21.58;;;;;;;;;;5069775;28;20044;-75
2023/03/05 10:48:20;;;;;;;61.08;23.50;;;;;;;;;;5073603;28;20052;-75
2023/03/05 10:50:49;;;;;;;112.43;47.13;;;;;;;;;;5074862;28;20035;-75
2023/03/05 10:53:25;;;;;;;54.67;23.17;;;;;;;;;;5057028;28;20029;-75
2023/03/05 10:55:54;;;;;;;70.15;29.35;;;;;;;;;;5072925;28;20052;-75
2023/03/05 10:58:20;;;;;;;66.95;25.80;;;;;;;;;;5073712;28;20089;-75
2023/03/05 11:01:11;;;;;;;53.63;21.35;;;;;;;;;;5053455;28;20028;-75
2023/03/05 11:03:51;;;;;;;49.83;18.60;;;;;;;;;;5073756;28;20081;-75
2023/03/05 11:06:29;;;;;;;48.72;17.80;;;;;;;;;;5073853;28;20078;-75
2023/03/05 11:08:55;;;;;;;49.03;18.05;;;;;;;;;;5073033;28;20033;-75
2023/03/05 11:11:21;;;;;;;44.83;17.65;;;;;;;;;;5072901;28;20028;-75
2023/03/05 11:13:47;;;;;;;46.45;17.90;;;;;;;;;;5074370;28;20031;-75
2023/03/05 11:16:16;;;;;;;42.60;17.23;;;;;;;;;;5074206;28;20029;-74
2023/03/05 11:18:43;;;;;;;48.23;17.60;;;;;;;;;;5056657;28;20036;-73
2023/03/05 11:21:10;;;;;;;48.10;17.48;;;;;;;;;;5072866;28;20027;-74
2023/03/05 11:23:35;;;;;;;59.67;18.85;;;;;;;;;;5040013;28;20420;-74
2023/03/05 11:26:17;;;;;;;56.63;18.95;;;;;;;;;;5072496;28;20024;-74
2023/03/05 11:28:52;;;;;;;54.17;17.90;;;;;;;;;;5074107;28;20031;-75
2023/03/05 11:31:17;;;;;;;54.22;18.30;;;;;;;;;;5074378;28;20020;-74
2023/03/05 11:34:05;;;;;;;54.70;18.27;;;;;;;;;;5074028;28;20035;-74
2023/03/05 11:36:33;;;;;;;46.25;17.00;;;;;;;;;;5072881;28;20040;-77
2023/03/05 11:39:05;;;;;;;62.05;18.23;;;;;;;;;;5074047;28;20036;-76
2023/03/05 11:41:37;;;;;;;50.05;17.30;;;;;;;;;;5072732;28;20028;-75
2023/03/05 11:44:06;;;;;;;49.22;17.40;;;;;;;;;;5056311;28;20477;-74
2023/03/05 11:46:37;;;;;;;56.58;19.92;;;;;;;;;;5040010;28;20032;-74
2023/03/05 11:49:03;;;;;;;50.17;17.65;;;;;;;;;;5056211;28;20036;-74
2023/03/05 11:51:35;;;;;;;53.17;15.93;;;;;;;;;;5055980;28;20020;-75
2023/03/05 11:54:11;;;;;;;60.92;19.00;;;;;;;;;;5072681;28;20028;-74
2023/03/05 11:56:38;;;;;;;61.55;18.70;;;;;;;;;;5040652;28;20074;-75
2023/03/05 11:59:18;;;;;;;47.42;16.75;;;;;;;;;;5072631;28;20033;-74
2023/03/05 12:01:52;;;;;;;55.13;19.67;;;;;;;;;;5053842;28;20067;-74
2023/03/05 12:04:18;;;;;;;49.70;19.25;;;;;;;;;;5072434;28;20024;-74
2023/03/05 12:06:44;;;;;;;54.67;19.83;;;;;;;;;;5073005;28;20039;-74
2023/03/05 12:09:27;;;;;;;55.05;19.75;;;;;;;;;;5072051;28;20035;-74
2023/03/05 12:12:00;;;;;;;56.97;19.17;;;;;;;;;;5072970;28;20443;-74
2023/03/05 12:14:32;;;;;;;54.85;20.52;;;;;;;;;;5056364;28;20020;-75
2023/03/05 12:17:09;;;;;;;60.78;19.70;;;;;;;;;;5072470;28;20040;-74
2023/03/05 12:19:38;;;;;;;56.30;19.77;;;;;;;;;;5076557;28;20090;-73
2023/03/05 12:22:05;;;;;;;51.20;18.40;;;;;;;;;;5077299;28;20478;-76
2023/03/05 12:24:32;;;;;;;57.83;20.67;;;;;;;;;;5043301;28;20338;-74
2023/03/05 12:27:01;;;;;;;57.95;21.08;;;;;;;;;;5076212;28;20032;-75
2023/03/05 12:29:48;;;;;;;53.03;19.23;;;;;;;;;;5077440;28;20028;-74
2023/03/05 12:32:32;;;;;;;45.22;18.30;;;;;;;;;;5076234;28;20032;-74
2023/03/05 12:35:17;;;;;;;48.40;17.52;;;;;;;;;;5077315;28;20020;-75
2023/03/05 12:37:43;;;;;;;51.40;19.38;;;;;;;;;;5069904;28;20072;-74
2023/03/05 12:40:09;;;;;;;52.92;19.65;;;;;;;;;;5076298;28;20074;-74
2023/03/05 12:42:39;;;;;;;44.45;18.00;;;;;;;;;;5077172;28;20032;-75
2023/03/05 12:45:11;;;;;;;47.27;17.63;;;;;;;;;;5075865;28;20021;-75
2023/03/05 12:47:37;;;;;;;48.65;17.25;;;;;;;;;;5077342;28;20274;-75
2023/03/05 12:50:02;;;;;;;48.10;17.50;;;;;;;;;;5075852;28;20035;-75
2023/03/05 12:52:32;;;;;;;44.20;16.50;;;;;;;;;;5058951;28;20346;-74
2023/03/05 12:55:44;;;;;;;46.57;16.27;;;;;;;;;;5075826;28;20102;-75
2023/03/05 12:58:14;;;;;;;51.17;16.77;;;;;;;;;;5034760;28;20037;-74
2023/03/05 13:00:50;;;;;;;41.13;16.52;;;;;;;;;;5018361;28;20541;-75
2023/03/05 13:03:29;;;;;;;44.35;15.50;;;;;;;;;;5037407;28;20469;-74
2023/03/05 13:05:56;;;;;;;63.83;16.75;;;;;;;;;;5056937;28;20068;-73
2023/03/05 13:08:34;;;;;;;43.67;16.27;;;;;;;;;;5075529;28;20029;-73
2023/03/05 13:11:03;;;;;;;40.63;16.02;;;;;;;;;;5076711;28;20025;-74
2023/03/05 13:13:32;;;;;;;45.88;17.35;;;;;;;;;;5075286;28;20028;-74
2023/03/05 13:15:57;;;;;;;43.42;16.20;;;;;;;;;;5075320;28;20036;-74
2023/03/05 13:18:25;;;;;;;39.67;16.08;;;;;;;;;;5058702;28;20017;-76
2023/03/05 13:21:23;;;;;;;42.05;15.65;;;;;;;;;;5042129;28;20044;-76
2023/03/05 13:23:56;;;;;;;39.25;16.48;;;;;;;;;;5068446;28;20532;-76
2023/03/05 13:26:23;;;;;;;44.53;17.23;;;;;;;;;;5075590;28;20373;-75
2023/03/05 13:29:13;;;;;;;49.80;16.92;;;;;;;;;;5058250;28;20047;-76
2023/03/05 13:31:46;;;;;;;53.83;18.75;;;;;;;;;;5076417;28;20028;-75
2023/03/05 13:34:18;;;;;;;38.80;15.88;;;;;;;;;;5075406;28;20105;-76
2023/03/05 13:36:45;;;;;;;43.13;16.20;;;;;;;;;;5076187;28;20035;-75
2023/03/05 13:39:17;;;;;;;45.58;16.58;;;;;;;;;;5058720;28;20040;-76
2023/03/05 13:41:42;;;;;;;41.40;15.80;;;;;;;;;;5076246;28;20074;-75
2023/03/05 13:44:18;;;;;;;42.92;17.48;;;;;;;;;;5042932;28;20424;-76
2023/03/05 13:46:44;;;;;;;42.42;16.80;;;;;;;;;;5060772;28;20025;-75
2023/03/05 13:49:22;;;;;;;45.53;16.95;;;;;;;;;;5075729;28;20354;-76
2023/03/05 13:51:50;;;;;;;37.97;16.25;;;;;;;;;;5058042;28;20040;-76
2023/03/05 13:54:16;;;;;;;41.92;17.55;;;;;;;;;;5058132;28;20032;-75
2023/03/05 13:56:54;;;;;;;42.08;16.17;;;;;;;;;;5057717;28;20048;-75
2023/03/05 13:59:21;;;;;;;38.85;13.15;;;;;;;;;;5074571;28;20116;-75
2023/03/05 14:01:49;;;;;;;39.28;15.75;;;;;;;;;;5041382;28;20091;-77
2023/03/05 14:04:15;;;;;;;41.92;15.35;;;;;;;;;;5058577;28;20028;-77
2023/03/05 14:06:41;;;;;;;79.13;31.25;;;;;;;;;;5070261;28;20426;-76
2023/03/05 14:09:16;;;;;;;46.42;19.27;;;;;;;;;;5074123;28;20036;-75
2023/03/05 14:12:00;;;;;;;46.92;19.58;;;;;;;;;;5058954;28;20036;-76
2023/03/05 14:14:26;;;;;;;62.75;30.30;;;;;;;;;;5059110;28;20036;-75
2023/03/05 14:16:51;;;;;;;38.95;16.98;;;;;;;;;;5074007;28;20041;-76